Time;durP1;ratioP1;P1;durP2;ratioP2;P2;SDS_P1;SDS_P2;PMS_P1;PMS_P2;Temp;Humidity;BMP_temperature;BMP_pressure;BME280_temperature;BME280_humidity;BME280_pressure;Samples;Min_cycle;Max_cycle;Signal;HPM_P1;HPM_P2
2023/01/29 00:01:46;;;;;;;11.88;7.47;;;;;;;0.31;68.61;95062.22;5043318;28;20033;-78
2023/01/29 00:04:11;;;;;;;12.70;7.10;;;;;;;0.35;68.37;95060.34;5046025;28;20036;-77
2023/01/29 00:06:36;;;;;;;11.68;7.95;;;;;;;0.43;68.03;95062.75;5043078;28;20040;-77
2023/01/29 00:09:02;;;;;;;13.82;7.95;;;;;;;0.42;68.11;95065.84;5044239;28;20083;-77
2023/01/29 00:11:27;;;;;;;12.05;6.47;;;;;;;0.41;68.15;95065.06;5030644;28;20021;-78
2023/01/29 00:13:53;;;;;;;13.13;7.55;;;;;;;0.46;68.07;95062.03;5045502;28;20398;-78
2023/01/29 00:16:18;;;;;;;12.07;7.50;;;;;;;0.50;67.95;95065.53;5045434;28;20029;-78
2023/01/29 00:18:44;;;;;;;13.48;8.02;;;;;;;0.51;67.90;95072.50;5044629;28;20117;-77
2023/01/29 00:21:14;;;;;;;12.60;8.23;;;;;;;0.51;68.01;95077.91;5046594;28;20025;-76
2023/01/29 00:23:39;;;;;;;11.25;7.20;;;;;;;0.46;68.09;95080.97;5043869;28;20450;-77
2023/01/29 00:26:05;;;;;;;13.98;7.80;;;;;;;0.42;68.46;95073.94;5044588;28;20479;-78
2023/01/29 00:28:30;;;;;;;12.07;7.70;;;;;;;0.43;68.23;95075.50;5044478;28;20428;-77
2023/01/29 00:30:56;;;;;;;13.50;7.78;;;;;;;0.43;68.20;95076.28;5045105;28;20033;-77
2023/01/29 00:33:21;;;;;;;13.68;8.20;;;;;;;0.33;68.71;95076.16;5043757;28;20017;-76
2023/01/29 00:35:46;;;;;;;12.32;7.30;;;;;;;0.25;68.62;95065.25;5044543;28;20414;-78
2023/01/29 00:38:12;;;;;;;12.63;8.10;;;;;;;0.34;68.65;95077.69;5045265;28;20028;-78
2023/01/29 00:46:07;;;;;;;11.70;6.88;;;;;;;0.32;68.82;95082.69;5043338;28;20162;-78
2023/01/29 00:48:33;;;;;;;13.10;7.50;;;;;;;0.26;68.80;95074.13;5044700;28;20124;-77
2023/01/29 00:50:59;;;;;;;11.60;7.20;;;;;;;0.22;68.92;95074.06;5060133;28;20080;-78
2023/01/29 00:53:24;;;;;;;12.68;8.00;;;;;;;0.18;69.13;95078.69;5042883;28;20104;-77
2023/01/29 00:55:50;;;;;;;15.30;10.15;;;;;;;0.16;69.27;95072.84;5044532;28;20149;-78
2023/01/29 00:58:20;;;;;;;17.85;9.95;;;;;;;0.16;69.37;95074.75;5042376;28;20537;-77
2023/01/29 01:00:49;;;;;;;12.27;6.97;;;;;;;0.17;69.19;95073.63;5026124;28;20039;-77
2023/01/29 01:03:14;;;;;;;11.00;7.18;;;;;;;0.19;69.12;95074.03;5059504;28;20083;-77
2023/01/29 01:05:41;;;;;;;12.05;6.90;;;;;;;0.23;68.90;95067.53;5031249;28;20029;-77
2023/01/29 01:10:19;;;;;;;12.27;7.13;;;;;;;0.18;68.79;95073.28;5044242;28;20021;-77
2023/01/29 01:11:04;;;;;;;11.68;7.07;;;;;;;0.20;68.66;95070.19;5060878;28;20457;-76
2023/01/29 01:13:31;;;;;;;12.40;7.38;;;;;;;0.19;68.64;95060.53;5047804;28;20490;-77
2023/01/29 01:15:56;;;;;;;12.07;7.30;;;;;;;0.24;68.05;95076.44;5046366;28;20060;-77
2023/01/29 01:18:22;;;;;;;9.60;6.05;;;;;;;0.17;68.55;95060.91;5048861;28;20495;-76
2023/01/29 01:20:50;;;;;;;10.73;7.10;;;;;;;0.16;68.54;95075.53;5048003;28;20550;-77
2023/01/29 01:23:18;;;;;;;11.93;6.32;;;;;;;0.10;68.60;95063.50;5048341;28;20492;-78
2023/01/29 01:25:43;;;;;;;11.88;6.20;;;;;;;0.01;68.82;95062.22;5048772;28;20029;-79
2023/01/29 01:28:09;;;;;;;10.23;6.40;;;;;;;-0.03;69.15;95078.38;5047832;28;20074;-77
2023/01/29 01:30:35;;;;;;;10.68;7.25;;;;;;;-0.10;69.39;95059.38;5047383;28;20036;-76
2023/01/29 01:33:00;;;;;;;10.50;6.75;;;;;;;-0.17;69.63;95065.47;5029588;28;20540;-78
2023/01/29 01:35:26;;;;;;;10.90;6.65;;;;;;;-0.15;69.61;95073.19;5030471;28;20458;-78
2023/01/29 01:37:51;;;;;;;9.32;6.47;;;;;;;-0.25;70.03;95066.50;5047333;28;20517;-77
2023/01/29 01:40:21;;;;;;;11.63;6.60;;;;;;;-0.22;70.12;95067.69;5047891;28;20818;-76
2023/01/29 01:42:52;;;;;;;10.35;6.63;;;;;;;-0.17;70.00;95073.56;5063167;28;20125;-77
2023/01/29 01:45:26;;;;;;;10.60;6.72;;;;;;;-0.14;70.04;95070.13;5046351;28;20036;-77
2023/01/29 01:48:13;;;;;;;12.50;6.93;;;;;;;-0.17;70.15;95068.16;5048354;28;20025;-78
2023/01/29 01:50:44;;;;;;;13.50;7.35;;;;;;;-0.06;69.95;95069.09;5047165;28;20025;-77
2023/01/29 01:53:15;;;;;;;11.35;6.93;;;;;;;0.02;69.85;95066.47;5046714;28;20025;-77
2023/01/29 01:55:54;;;;;;;11.25;6.97;;;;;;;0.06;69.69;95070.78;5046746;28;20021;-78
2023/01/29 01:58:31;;;;;;;10.27;6.97;;;;;;;0.04;69.77;95075.00;5046382;28;20022;-78
2023/01/29 02:00:56;;;;;;;12.98;7.75;;;;;;;0.04;69.78;95069.59;5048829;28;20018;-76
2023/01/29 02:11:39;;;;;;;12.43;6.43;;;;;;;0.04;70.42;95083.09;5046005;28;19942;-77
2023/01/29 02:14:05;;;;;;;12.15;6.93;;;;;;;0.08;70.20;95076.59;5046282;28;20032;-75
2023/01/29 02:16:34;;;;;;;12.57;7.90;;;;;;;0.08;70.45;95082.00;5062183;28;20032;-76
2023/01/29 02:18:59;;;;;;;11.25;7.95;;;;;;;0.11;70.08;95073.16;5046735;28;20049;-77
2023/01/29 02:21:43;;;;;;;11.27;6.80;;;;;;;0.15;70.12;95082.09;5047290;28;20044;-77
2023/01/29 02:24:47;;;;;;;9.23;6.63;;;;;;;0.17;70.16;95079.81;5046723;28;20044;-76
2023/01/29 02:27:14;;;;;;;11.55;6.20;;;;;;;0.16;70.17;95080.94;5024832;28;20140;-78
2023/01/29 02:30:12;;;;;;;10.88;6.22;;;;;;;0.25;69.95;95083.41;5024172;28;20072;-78
2023/01/29 02:32:53;;;;;;;11.23;6.47;;;;;;;0.19;69.88;95087.56;5004413;28;20046;-78
2023/01/29 02:35:28;;;;;;;11.10;6.30;;;;;;;0.24;69.79;95093.44;5024905;28;20041;-78
2023/01/29 02:38:21;;;;;;;10.50;6.38;;;;;;;0.25;69.64;95084.16;5007150;28;20025;-78
2023/01/29 02:40:51;;;;;;;12.45;6.72;;;;;;;0.27;69.71;95097.31;5024079;28;20049;-76
2023/01/29 02:43:38;;;;;;;12.25;6.90;;;;;;;0.26;69.80;95096.53;5024741;28;20086;-79
2023/01/29 02:46:15;;;;;;;9.95;6.07;;;;;;;0.27;69.52;95097.31;5023668;28;20439;-77
2023/01/29 02:49:02;;;;;;;11.32;7.10;;;;;;;0.30;69.47;95101.22;5008221;28;20063;-77
2023/01/29 02:51:36;;;;;;;10.52;7.60;;;;;;;0.31;69.39;95102.78;5024125;28;20445;-78
2023/01/29 02:54:04;;;;;;;13.40;7.70;;;;;;;0.41;69.38;95102.16;5007406;28;20041;-77
2023/01/29 02:56:38;;;;;;;12.18;6.80;;;;;;;0.43;69.68;95107.97;5026380;28;20033;-78
2023/01/29 02:59:14;;;;;;;;;;;;;;;0.47;69.15;95100.69;5009250;28;20041;-78
2023/01/29 03:02:16;;;;;;;10.98;6.22;;;;;;;0.44;69.27;95099.47;5034369;28;20019;-77
2023/01/29 03:04:50;;;;;;;10.10;6.60;;;;;;;0.44;69.10;95109.50;5055314;28;20040;-76
2023/01/29 03:07:39;;;;;;;9.90;6.13;;;;;;;0.40;69.03;95111.38;5045035;28;20029;-79
2023/01/29 03:10:27;;;;;;;9.25;5.90;;;;;;;0.36;69.21;95105.16;5045501;28;20056;-78
2023/01/29 03:12:58;;;;;;;9.68;6.22;;;;;;;0.33;69.44;95101.25;5061346;28;20033;-76
2023/01/29 03:15:38;;;;;;;10.38;6.53;;;;;;;0.40;69.43;95109.47;5045533;28;20033;-77
2023/01/29 03:18:10;;;;;;;8.82;6.57;;;;;;;0.44;69.17;95106.81;5045135;28;20114;-78
2023/01/29 03:20:47;;;;;;;9.30;6.00;;;;;;;0.45;69.02;95106.44;5044455;28;20183;-78
2023/01/29 03:23:26;;;;;;;9.02;5.78;;;;;;;0.48;68.65;95111.13;5045057;28;20495;-77
2023/01/29 03:34:17;;;;;;;9.18;5.38;;;;;;;0.58;67.83;95114.34;5044119;28;20407;-78
2023/01/29 03:37:01;;;;;;;8.30;5.20;;;;;;;0.52;68.16;95114.66;5028825;28;20040;-77
2023/01/29 03:39:27;;;;;;;9.50;5.85;;;;;;;0.55;68.05;95109.66;5028167;28;20152;-77
2023/01/29 03:41:59;;;;;;;7.70;5.53;;;;;;;0.49;67.95;95106.47;5045652;28;20378;-76
2023/01/29 03:44:36;;;;;;;7.80;4.80;;;;;;;0.52;68.27;95116.59;5046326;28;20280;-76
2023/01/29 03:47:33;;;;;;;7.35;5.07;;;;;;;0.51;68.03;95120.41;5026883;28;20033;-78
2023/01/29 03:50:03;;;;;;;7.88;5.20;;;;;;;0.44;67.96;95110.28;5045957;28;20033;-78
2023/01/29 03:53:24;;;;;;;6.78;5.05;;;;;;;0.45;68.08;95111.84;5046998;28;20036;-78
2023/01/29 03:56:06;;;;;;;7.80;5.00;;;;;;;0.42;67.87;95106.41;5022384;28;20476;-78
2023/01/29 03:58:40;;;;;;;8.02;5.30;;;;;;;0.46;67.90;95109.91;5044836;28;20111;-76
2023/01/29 04:01:30;;;;;;;8.65;4.80;;;;;;;0.43;67.67;95110.66;5045439;28;20021;-77
2023/01/29 04:04:04;;;;;;;8.98;5.47;;;;;;;0.38;67.73;95114.47;5044868;28;20560;-77
2023/01/29 04:06:30;;;;;;;;;;;;;;;0.40;67.76;95109.47;5044796;28;20110;-77
2023/01/29 04:08:57;;;;;;;7.63;5.28;;;;;;;0.41;67.74;95118.38;5043234;28;20152;-77
2023/01/29 04:11:23;;;;;;;6.43;4.55;;;;;;;0.42;67.99;95114.53;5044047;28;20223;-76
2023/01/29 04:13:50;;;;;;;7.68;4.35;;;;;;;0.42;67.96;95117.22;5044107;28;20032;-78
2023/01/29 04:16:21;;;;;;;9.65;5.18;;;;;;;0.45;68.28;95127.28;5043570;28;20069;-78
2023/01/29 04:18:47;;;;;;;8.45;5.00;;;;;;;0.44;68.02;95121.09;5044125;28;20045;-76
2023/01/29 04:21:13;;;;;;;7.70;4.75;;;;;;;0.39;68.30;95126.84;5043169;28;20036;-79
2023/01/29 04:23:39;;;;;;;7.00;5.15;;;;;;;0.40;68.32;95120.31;5061008;28;20095;-77
2023/01/29 04:26:20;;;;;;;7.35;5.30;;;;;;;0.39;68.23;95121.44;5044589;28;20446;-77
2023/01/29 04:29:22;;;;;;;9.30;4.95;;;;;;;0.42;68.22;95123.41;5045488;28;20120;-78
2023/01/29 04:32:02;;;;;;;8.23;4.88;;;;;;;0.38;68.25;95127.22;5027423;28;20040;-77
2023/01/29 04:34:29;;;;;;;7.10;4.93;;;;;;;0.35;68.63;95112.50;5026287;28;20025;-77
2023/01/29 04:37:18;;;;;;;7.40;4.88;;;;;;;0.33;68.64;95122.88;5060396;28;20024;-78
2023/01/29 04:40:06;;;;;;;6.63;4.65;;;;;;;0.36;68.73;95124.09;5043385;28;20051;-78
2023/01/29 04:43:08;;;;;;;7.47;5.05;;;;;;;0.29;68.98;95129.41;5041207;28;20037;-78
2023/01/29 04:45:45;;;;;;;7.10;4.47;;;;;;;0.28;69.48;95134.03;5043782;28;20033;-78
2023/01/29 04:48:39;;;;;;;6.47;4.57;;;;;;;0.26;69.46;95130.91;5045519;28;20084;-78
2023/01/29 04:51:14;;;;;;;9.20;5.55;;;;;;;0.25;69.37;95132.84;5044668;28;20495;-78
2023/01/29 04:53:51;;;;;;;9.88;5.75;;;;;;;0.24;69.29;95138.63;5060710;28;20029;-78
2023/01/29 04:56:30;;;;;;;8.48;5.07;;;;;;;0.24;69.41;95134.00;5042625;28;20321;-77
2023/01/29 04:59:04;;;;;;;9.60;5.70;;;;;;;0.30;69.51;95129.06;5026782;28;20029;-77
2023/01/29 05:01:32;;;;;;;7.50;4.88;;;;;;;0.33;69.12;95135.63;5043311;28;20059;-77
2023/01/29 05:03:59;;;;;;;7.47;5.07;;;;;;;0.30;69.22;95136.38;5043086;28;20039;-78
2023/01/29 05:06:24;;;;;;;8.07;5.10;;;;;;;0.22;69.58;95141.69;5043210;28;20129;-77
2023/01/29 05:08:50;;;;;;;7.10;4.75;;;;;;;0.24;69.47;95135.91;5042676;28;20124;-77
2023/01/29 05:11:17;;;;;;;5.82;4.55;;;;;;;0.20;69.63;95137.78;5044848;28;20056;-77
2023/01/29 05:13:42;;;;;;;7.82;5.07;;;;;;;0.18;69.64;95140.09;5059153;28;20120;-77
2023/01/29 05:16:40;;;;;;;7.90;5.03;;;;;;;0.17;70.29;95144.72;5043140;28;20047;-79
2023/01/29 05:19:09;;;;;;;8.30;5.57;;;;;;;0.23;69.72;95142.44;5058639;28;20135;-77
2023/01/29 05:21:34;;;;;;;8.50;5.60;;;;;;;0.22;69.61;95147.09;5026443;28;20115;-78
2023/01/29 05:24:10;;;;;;;6.95;4.75;;;;;;;0.33;68.86;95149.16;5044732;28;20215;-78
2023/01/29 05:29:20;;;;;;;6.32;4.75;;;;;;;0.40;68.54;95154.66;5043360;28;20032;-78
2023/01/29 05:31:46;;;;;;;7.90;4.95;;;;;;;0.48;68.34;95159.81;5044083;28;20104;-79
2023/01/29 05:34:11;;;;;;;7.20;5.45;;;;;;;0.42;67.91;95141.56;5026394;28;20200;-77
2023/01/29 05:36:36;;;;;;;11.32;5.88;;;;;;;0.53;67.86;95154.09;5043525;28;20415;-78
2023/01/29 05:39:02;;;;;;;9.23;5.60;;;;;;;0.57;67.57;95151.41;5043451;28;20107;-76
2023/01/29 05:41:27;;;;;;;8.45;5.60;;;;;;;0.57;67.54;95154.13;5044599;28;20029;-77
2023/01/29 05:43:53;;;;;;;7.18;5.15;;;;;;;0.57;67.52;95158.75;5044078;28;20029;-77
2023/01/29 05:46:18;;;;;;;8.35;5.63;;;;;;;0.53;67.45;95153.31;5048735;28;20029;-77
2023/01/29 05:48:44;;;;;;;10.68;6.50;;;;;;;0.49;67.88;95163.28;5043464;28;20029;-77
2023/01/29 05:51:09;;;;;;;9.18;5.80;;;;;;;0.47;68.09;95165.59;5044454;28;20032;-79
2023/01/29 05:53:34;;;;;;;8.45;5.55;;;;;;;0.51;68.22;95169.88;5043233;28;20029;-78
2023/01/29 05:56:01;;;;;;;6.78;4.82;;;;;;;0.57;68.15;95174.97;5047553;28;20079;-78
2023/01/29 05:58:26;;;;;;;4.93;4.05;;;;;;;0.62;67.98;95166.53;5047037;28;20763;-77
2023/01/29 06:00:51;;;;;;;7.43;5.05;;;;;;;0.59;67.96;95172.72;5062422;28;20055;-78
2023/01/29 06:03:17;;;;;;;7.97;5.13;;;;;;;0.61;68.46;95183.94;5046779;28;20418;-78
2023/01/29 06:05:43;;;;;;;8.05;5.20;;;;;;;0.63;68.17;95174.31;5047366;28;20033;-77
2023/01/29 06:08:08;;;;;;;9.68;5.82;;;;;;;0.71;67.94;95180.59;5046536;28;20033;-77
2023/01/29 06:10:34;;;;;;;8.45;5.60;;;;;;;0.81;67.74;95185.38;5047683;28;20094;-78
2023/01/29 06:12:59;;;;;;;9.35;5.07;;;;;;;0.88;67.11;95184.66;5047351;28;20479;-78
2023/01/29 06:15:25;;;;;;;8.35;5.40;;;;;;;0.89;67.15;95188.94;5047786;28;20375;-79
2023/01/29 06:17:54;;;;;;;7.63;5.40;;;;;;;0.85;67.40;95188.88;5045411;28;20071;-77
2023/01/29 06:20:20;;;;;;;8.18;5.68;;;;;;;0.91;67.44;95194.75;5029350;28;20033;-78
2023/01/29 06:22:45;;;;;;;8.07;5.90;;;;;;;0.89;67.21;95189.69;5045363;28;20024;-77
2023/01/29 06:25:10;;;;;;;7.57;5.30;;;;;;;0.82;67.56;95188.84;5047658;28;20033;-78
2023/01/29 06:27:36;;;;;;;7.85;5.55;;;;;;;0.82;67.47;95197.75;5045935;28;20411;-76
2023/01/29 06:30:03;;;;;;;8.98;6.20;;;;;;;0.81;67.77;95204.31;5029195;28;20525;-77
2023/01/29 06:32:28;;;;;;;10.18;6.03;;;;;;;0.81;67.83;95208.94;5062754;28;20029;-78
2023/01/29 06:34:54;;;;;;;8.75;5.97;;;;;;;0.83;68.13;95217.47;5045401;28;20032;-78
2023/01/29 06:37:19;;;;;;;9.02;6.05;;;;;;;0.83;68.15;95212.06;5047153;28;20025;-77
2023/01/29 06:39:45;;;;;;;8.95;6.07;;;;;;;0.82;68.20;95218.63;5045483;28;20029;-78
2023/01/29 06:42:10;;;;;;;11.07;8.30;;;;;;;0.82;68.41;95219.41;5048550;28;20059;-78
2023/01/29 06:44:35;;;;;;;9.80;6.30;;;;;;;0.77;68.74;95214.31;5046385;28;20458;-77
2023/01/29 06:47:01;;;;;;;9.10;6.65;;;;;;;0.77;68.94;95219.72;5045813;28;20080;-76
2023/01/29 06:49:26;;;;;;;12.55;7.10;;;;;;;0.79;68.25;95217.41;5045746;28;20075;-80
2023/01/29 06:51:52;;;;;;;12.07;7.18;;;;;;;0.79;68.56;95229.00;5028829;28;20025;-76
2023/01/29 06:54:17;;;;;;;11.63;6.78;;;;;;;0.81;68.48;95225.97;5046805;28;20028;-78
2023/01/29 06:56:42;;;;;;;11.00;6.88;;;;;;;0.82;68.62;95226.75;5045118;28;20498;-76
2023/01/29 06:59:09;;;;;;;9.48;6.43;;;;;;;0.83;68.75;95229.06;5046943;28;20057;-78
2023/01/29 07:01:39;;;;;;;11.00;7.13;;;;;;;0.93;68.25;95230.38;5044753;28;20448;-77
2023/01/29 07:04:05;;;;;;;12.50;7.57;;;;;;;0.98;68.03;95236.25;5045522;28;20376;-77
2023/01/29 07:06:30;;;;;;;11.40;7.20;;;;;;;0.99;68.08;95240.50;5046489;28;20179;-77
2023/01/29 07:08:56;;;;;;;12.75;7.20;;;;;;;1.05;67.81;95241.72;5045305;28;20029;-77
2023/01/29 07:11:21;;;;;;;11.13;7.85;;;;;;;1.04;67.54;95245.59;5044761;28;20458;-78
2023/01/29 07:13:46;;;;;;;10.27;7.10;;;;;;;1.03;67.53;95246.75;5046177;28;20025;-78
2023/01/29 07:16:12;;;;;;;11.27;6.85;;;;;;;1.03;67.59;95245.94;5045154;28;20450;-77
2023/01/29 07:18:37;;;;;;;10.77;6.90;;;;;;;1.06;67.40;95253.34;5027682;28;20139;-77
2023/01/29 07:21:05;;;;;;;13.88;6.97;;;;;;;1.03;67.61;95254.06;5046760;28;20033;-75
2023/01/29 07:23:30;;;;;;;14.30;8.05;;;;;;;1.03;67.63;95256.78;5045883;28;20025;-77
2023/01/29 07:25:59;;;;;;;12.43;7.75;;;;;;;1.02;67.63;95256.00;5045098;28;20086;-78
2023/01/29 07:28:25;;;;;;;13.05;7.53;;;;;;;1.04;67.36;95258.34;5061182;28;20048;-78
2023/01/29 07:30:57;;;;;;;11.13;7.93;;;;;;;1.02;67.56;95264.13;5044634;28;20051;-77
2023/01/29 07:33:23;;;;;;;13.80;8.02;;;;;;;1.03;67.83;95262.19;5045367;28;20487;-78
2023/01/29 07:35:48;;;;;;;10.93;8.10;;;;;;;1.01;67.99;95256.38;5051913;28;20021;-79
2023/01/29 07:38:13;;;;;;;12.55;7.60;;;;;;;1.10;67.33;95262.31;5046369;28;20415;-77
2023/01/29 07:40:39;;;;;;;11.98;7.28;;;;;;;1.12;67.76;95261.94;5045753;28;20100;-78
2023/01/29 07:43:06;;;;;;;10.82;7.70;;;;;;;1.19;66.97;95259.28;5046455;28;20412;-78
2023/01/29 07:45:34;;;;;;;12.23;7.40;;;;;;;1.14;66.98;95260.41;5046177;28;20029;-85
2023/01/29 07:47:59;;;;;;;10.32;7.25;;;;;;;1.01;66.91;95254.44;5062363;28;20056;-82
2023/01/29 07:50:25;;;;;;;12.50;7.75;;;;;;;1.08;67.32;95264.56;5046157;28;20311;-77
2023/01/29 07:52:52;;;;;;;13.50;8.30;;;;;;;1.10;67.47;95265.00;5044162;28;20037;-81
2023/01/29 07:55:18;;;;;;;12.60;7.97;;;;;;;1.11;66.92;95266.56;5045223;28;20021;-83
2023/01/29 07:57:43;;;;;;;11.48;7.80;;;;;;;1.12;67.08;95270.81;5042922;28;20029;-77
2023/01/29 08:00:10;;;;;;;14.27;8.23;;;;;;;1.06;67.16;95273.06;5044579;28;20111;-79
2023/01/29 08:02:36;;;;;;;11.23;7.28;;;;;;;1.06;67.28;95273.06;5060568;28;20021;-78
2023/01/29 08:05:01;;;;;;;14.52;8.23;;;;;;;1.06;67.15;95273.06;5046003;28;20522;-77
2023/01/29 08:07:26;;;;;;;12.25;7.55;;;;;;;0.99;67.01;95274.91;5047141;28;20415;-79
2023/01/29 08:09:52;;;;;;;10.00;6.95;;;;;;;0.94;67.08;95276.00;5045556;28;20455;-80
2023/01/29 08:12:17;;;;;;;10.95;6.53;;;;;;;0.91;66.96;95273.25;5044609;28;20033;-81
2023/01/29 08:14:44;;;;;;;11.45;7.28;;;;;;;0.90;67.04;95280.59;5043525;28;20091;-80
2023/01/29 08:17:10;;;;;;;12.43;8.07;;;;;;;0.92;67.12;95278.31;5045277;28;20041;-80
2023/01/29 08:19:35;;;;;;;10.40;6.82;;;;;;;0.97;66.92;95291.50;5043865;28;20032;-76
2023/01/29 08:22:02;;;;;;;11.40;7.57;;;;;;;1.02;67.02;95285.00;5060695;28;20052;-75
2023/01/29 08:24:28;;;;;;;12.65;8.05;;;;;;;1.06;66.86;95283.13;5043202;28;20099;-77
2023/01/29 08:26:53;;;;;;;12.68;8.50;;;;;;;1.12;66.65;95287.06;5043687;28;20057;-77
2023/01/29 08:29:18;;;;;;;13.38;9.10;;;;;;;1.19;66.20;95292.56;5043738;28;20033;-82
2023/01/29 08:31:44;;;;;;;12.95;8.73;;;;;;;1.30;65.86;95296.19;5050028;28;20052;-78
2023/01/29 08:34:09;;;;;;;14.13;8.57;;;;;;;1.31;65.72;95297.75;5046066;28;20033;-82
2023/01/29 08:36:36;;;;;;;12.75;8.52;;;;;;;1.31;65.61;95297.75;5044006;28;20107;-83
2023/01/29 08:39:02;;;;;;;11.60;7.63;;;;;;;1.25;65.57;95291.09;5045301;28;20064;-78
2023/01/29 08:41:27;;;;;;;11.48;8.27;;;;;;;1.26;65.27;95306.22;5026412;28;20577;-80
2023/01/29 08:43:53;;;;;;;14.68;8.43;;;;;;;1.29;65.02;95293.88;5046079;28;20027;-82
2023/01/29 08:46:18;;;;;;;12.57;8.40;;;;;;;1.20;65.15;95296.84;5043797;28;20091;-81
2023/01/29 08:48:43;;;;;;;12.77;7.72;;;;;;;1.08;65.53;95305.19;5027055;28;20444;-81
2023/01/29 08:51:09;;;;;;;14.57;8.32;;;;;;;1.08;65.70;95305.19;5045533;28;20112;-77
2023/01/29 08:53:34;;;;;;;14.63;8.40;;;;;;;1.08;65.75;95304.41;5042488;28;20024;-78
2023/01/29 08:56:00;;;;;;;11.70;7.60;;;;;;;0.97;65.66;95307.75;5045284;28;20082;-77
2023/01/29 08:58:25;;;;;;;11.07;7.78;;;;;;;0.97;65.99;95321.28;5042326;28;20033;-77
2023/01/29 09:00:50;;;;;;;11.57;7.75;;;;;;;1.05;65.80;95316.78;5044746;28;20033;-77
2023/01/29 09:03:16;;;;;;;13.63;8.30;;;;;;;1.10;65.72;95318.38;5043689;28;20025;-76
2023/01/29 09:05:41;;;;;;;12.95;9.52;;;;;;;1.11;65.78;95323.44;5041633;28;20029;-77
2023/01/29 09:08:08;;;;;;;14.55;8.85;;;;;;;1.20;65.38;95317.72;5044280;28;20029;-78
2023/01/29 09:10:34;;;;;;;13.90;8.68;;;;;;;1.22;65.39;95316.22;5042548;28;20025;-78
2023/01/29 09:12:59;;;;;;;14.93;8.82;;;;;;;1.29;65.06;95310.91;5043488;28;20495;-77
2023/01/29 09:15:25;;;;;;;16.13;9.65;;;;;;;1.36;65.09;95312.13;5042137;28;20028;-78
2023/01/29 09:17:50;;;;;;;15.63;9.52;;;;;;;1.45;64.64;95312.63;5045074;28;20049;-79
2023/01/29 09:20:16;;;;;;;17.05;9.68;;;;;;;1.52;64.50;95320.84;5044176;28;20025;-78
2023/01/29 09:22:42;;;;;;;12.82;8.60;;;;;;;1.56;64.22;95318.97;5045399;28;20036;-78
2023/01/29 09:25:08;;;;;;;16.48;10.30;;;;;;;1.60;63.99;95314.34;5044002;28;20026;-76
2023/01/29 09:27:33;;;;;;;13.38;9.02;;;;;;;1.55;63.91;95299.22;5048796;28;20051;-78
2023/01/29 09:29:59;;;;;;;14.82;9.65;;;;;;;1.55;64.30;95314.69;5062610;28;20049;-78
2023/01/29 09:32:24;;;;;;;12.57;8.60;;;;;;;1.45;64.33;95313.41;5029927;28;20110;-78
2023/01/29 09:34:50;;;;;;;14.02;8.30;;;;;;;1.48;64.36;95314.59;5047533;28;20025;-78
2023/01/29 09:37:16;;;;;;;14.65;8.18;;;;;;;1.52;64.10;95310.78;5047908;28;20082;-76
2023/01/29 09:39:42;;;;;;;11.45;7.75;;;;;;;1.49;64.37;95305.31;5048291;28;20025;-77
2023/01/29 09:42:15;;;;;;;15.05;8.20;;;;;;;1.54;64.07;95299.56;5047697;28;20032;-78
2023/01/29 09:45:09;;;;;;;11.43;8.07;;;;;;;1.48;64.17;95298.34;5048180;28;20029;-77
2023/01/29 09:47:35;;;;;;;11.95;7.85;;;;;;;1.47;64.23;95291.38;5047101;28;20064;-78
2023/01/29 09:50:04;;;;;;;13.10;7.70;;;;;;;1.46;64.39;95287.09;5062780;28;20025;-77
2023/01/29 09:52:47;;;;;;;11.18;7.72;;;;;;;1.53;64.15;95295.31;5046580;28;20051;-77
2023/01/29 09:55:26;;;;;;;14.88;8.45;;;;;;;1.47;63.80;95292.13;5046161;28;20033;-78
2023/01/29 09:58:00;;;;;;;12.45;8.93;;;;;;;1.51;64.32;95297.63;5047530;28;20040;-78
2023/01/29 10:00:36;;;;;;;;;;;;;;;1.39;64.50;95292.44;5046760;28;20025;-77
2023/01/29 10:03:17;;;;;;;11.40;8.02;;;;;;;1.26;64.94;95292.69;5047254;28;19913;-77
2023/01/29 10:06:19;;;;;;;15.07;8.50;;;;;;;1.32;64.98;95285.78;5047821;28;20472;-78
2023/01/29 10:08:53;;;;;;;14.23;8.00;;;;;;;1.37;64.64;95290.09;5033593;28;20041;-77
2023/01/29 10:11:52;;;;;;;12.88;9.00;;;;;;;1.40;65.07;95283.16;5046715;28;20028;-76
2023/01/29 10:14:20;;;;;;;12.88;8.00;;;;;;;1.38;64.70;95277.31;5047692;28;20029;-76
2023/01/29 10:17:19;;;;;;;14.57;9.45;;;;;;;1.39;64.92;95276.19;5047205;28;20055;-77
2023/01/29 10:19:50;;;;;;;14.63;9.27;;;;;;;1.38;64.99;95285.44;5046783;28;20071;-77
2023/01/29 10:22:43;;;;;;;12.98;8.82;;;;;;;1.40;64.98;95270.38;5050639;28;20025;-76
2023/01/29 10:25:12;;;;;;;15.52;9.57;;;;;;;1.35;64.90;95265.31;5047417;28;20056;-77
2023/01/29 10:27:40;;;;;;;16.63;9.50;;;;;;;1.41;65.42;95273.88;5046629;28;20025;-77
2023/01/29 10:30:17;;;;;;;15.73;9.25;;;;;;;1.45;64.85;95272.78;5047540;28;20530;-76
2023/01/29 10:32:43;;;;;;;14.65;9.57;;;;;;;1.43;64.70;95268.84;5028874;28;20017;-77
2023/01/29 10:35:29;;;;;;;16.42;9.98;;;;;;;1.42;64.55;95262.66;5046432;28;20029;-79
2023/01/29 10:37:58;;;;;;;16.48;9.68;;;;;;;1.26;64.92;95257.47;5046761;28;20471;-77
2023/01/29 10:40:52;;;;;;;15.25;8.82;;;;;;;1.18;65.45;95261.22;5045373;28;20021;-78
2023/01/29 10:43:32;;;;;;;16.98;9.30;;;;;;;1.19;65.45;95262.78;5045616;28;20098;-78
2023/01/29 10:46:20;;;;;;;17.98;9.75;;;;;;;1.12;65.84;95270.81;5045373;28;20127;-77
2023/01/29 10:48:51;;;;;;;18.73;11.18;;;;;;;1.10;66.19;95273.13;5047717;28;20048;-77
2023/01/29 10:51:24;;;;;;;16.67;10.82;;;;;;;1.06;66.38;95266.88;5046400;28;20107;-76
2023/01/29 10:54:18;;;;;;;18.15;10.77;;;;;;;1.11;66.35;95269.28;5047255;28;20025;-76
2023/01/29 10:56:50;;;;;;;19.38;11.15;;;;;;;1.12;65.76;95254.56;5047301;28;20415;-78
2023/01/29 10:59:28;;;;;;;17.92;10.52;;;;;;;1.03;66.05;95265.69;5044617;28;20029;-77
2023/01/29 11:01:58;;;;;;;15.30;9.35;;;;;;;0.95;66.02;95258.63;5029228;28;20106;-77
2023/01/29 11:04:25;;;;;;;18.73;10.18;;;;;;;0.94;66.11;95259.78;5062050;28;20136;-78
2023/01/29 11:06:50;;;;;;;20.40;9.90;;;;;;;1.02;66.37;95250.56;5045136;28;20129;-77
2023/01/29 11:09:25;;;;;;;16.20;9.48;;;;;;;1.03;66.32;95254.06;5047135;28;20099;-77
2023/01/29 11:11:55;;;;;;;17.35;9.35;;;;;;;1.03;66.38;95254.06;5044437;28;20191;-78
2023/01/29 11:14:29;;;;;;;16.15;10.27;;;;;;;1.08;66.31;95250.25;5047531;28;20504;-82
2023/01/29 11:16:54;;;;;;;16.17;10.13;;;;;;;1.13;66.03;95253.41;5046753;28;20036;-76
2023/01/29 11:19:41;;;;;;;16.40;10.05;;;;;;;1.06;66.04;95248.69;5054776;28;20044;-77
2023/01/29 11:22:15;;;;;;;17.27;9.80;;;;;;;1.05;66.09;95240.97;5045510;28;20058;-80
2023/01/29 11:24:41;;;;;;;20.35;10.63;;;;;;;1.08;66.14;95232.09;5045746;28;20041;-76
2023/01/29 11:27:28;;;;;;;17.65;10.75;;;;;;;1.14;65.91;95233.31;5046604;28;20040;-76
2023/01/29 11:29:54;;;;;;;16.20;10.05;;;;;;;1.20;66.16;95231.84;5044257;28;20028;-77
2023/01/29 11:32:20;;;;;;;18.73;10.38;;;;;;;1.30;65.72;95231.19;5044718;28;20029;-76
2023/01/29 11:34:58;;;;;;;17.75;9.75;;;;;;;1.35;65.27;95229.31;5046006;28;20063;-76
2023/01/29 11:37:32;;;;;;;17.95;10.40;;;;;;;1.39;65.09;95230.13;5045529;28;20025;-76
2023/01/29 11:39:58;;;;;;;16.20;10.38;;;;;;;1.34;65.17;95217.69;5044822;28;20145;-76
2023/01/29 11:42:25;;;;;;;19.35;10.05;;;;;;;1.43;65.30;95226.28;5045052;28;20227;-76
2023/01/29 11:44:51;;;;;;;21.83;10.68;;;;;;;1.46;65.08;95222.06;5045002;28;20022;-76
2023/01/29 11:47:26;;;;;;;18.23;11.18;;;;;;;1.45;64.88;95217.81;5045165;28;20035;-76
2023/01/29 11:50:00;;;;;;;18.45;10.38;;;;;;;1.47;65.16;95219.00;5045669;28;20039;-76
2023/01/29 11:52:41;;;;;;;;;;;;;;;1.47;65.36;95220.91;5060804;28;20032;-77
2023/01/29 11:55:16;;;;;;;16.77;10.27;;;;;;;1.37;65.46;95213.44;5043522;28;19913;-78
2023/01/29 11:57:45;;;;;;;21.10;10.60;;;;;;;1.29;65.39;95216.09;5045697;28;20409;-76
2023/01/29 12:00:16;;;;;;;16.70;9.98;;;;;;;1.35;65.53;95213.84;5045695;28;20028;-77
2023/01/29 12:02:44;;;;;;;22.92;11.73;;;;;;;1.43;65.21;95223.56;5046057;28;20029;-77
2023/01/29 12:05:15;;;;;;;34.58;15.10;;;;;;;1.57;64.88;95212.13;5061251;28;20112;-77
2023/01/29 12:07:47;;;;;;;23.95;12.80;;;;;;;1.65;64.40;95213.75;5043472;28;20414;-77
2023/01/29 12:10:37;;;;;;;18.45;11.00;;;;;;;1.68;64.43;95210.31;5044775;28;20051;-78
2023/01/29 12:13:19;;;;;;;19.70;10.07;;;;;;;1.64;64.39;95206.78;5062430;28;20021;-79
2023/01/29 12:15:46;;;;;;;22.50;12.38;;;;;;;1.67;64.69;95202.56;5062481;28;20041;-75
2023/01/29 12:18:33;;;;;;;21.65;11.38;;;;;;;1.88;64.02;95210.09;5043822;28;20405;-78
2023/01/29 12:21:02;;;;;;;19.20;10.85;;;;;;;2.03;63.30;95209.84;5044621;28;20423;-77